createdAt,value
2023-03-26T00:02:30.327Z,5.07
2023-03-26T00:04:58.690Z,5.45
2023-03-26T00:07:28.781Z,4.07
2023-03-26T00:09:58.846Z,4.78
2023-03-26T00:12:27.087Z,4.22
2023-03-26T00:14:55.603Z,5.28
2023-03-26T00:17:25.034Z,6.45
2023-03-26T00:19:54.129Z,4.68
2023-03-26T00:22:24.404Z,5.10
2023-03-26T00:24:53.058Z,5.22
2023-03-26T00:27:21.625Z,6.38
2023-03-26T00:29:49.935Z,6.35
2023-03-26T00:32:18.418Z,5.35
2023-03-26T00:34:48.299Z,4.35
2023-03-26T00:37:16.635Z,4.63
2023-03-26T00:39:45.053Z,6.15
2023-03-26T00:42:15.608Z,6.55
2023-03-26T00:44:43.859Z,6.40
2023-03-26T00:47:12.016Z,8.10
2023-03-26T00:49:40.455Z,9.40
2023-03-26T00:52:09.482Z,8.88
2023-03-26T00:54:38.009Z,8.02
2023-03-26T00:57:07.168Z,10.98
2023-03-26T00:59:36.287Z,9.88
2023-03-26T01:02:04.965Z,13.18
2023-03-26T01:04:35.342Z,13.95
2023-03-26T01:07:11.051Z,14.27
2023-03-26T01:09:46.572Z,14.60
2023-03-26T01:12:17.666Z,14.00
2023-03-26T01:14:48.609Z,15.05
2023-03-26T01:17:18.595Z,14.82
2023-03-26T01:20:13.783Z,15.57
2023-03-26T01:22:49.865Z,15.20
2023-03-26T01:25:19.001Z,16.07
2023-03-26T01:27:55.075Z,15.90
2023-03-26T01:30:42.933Z,16.83
2023-03-26T01:33:31.006Z,18.00
2023-03-26T01:36:41.935Z,18.02
2023-03-26T01:39:39.617Z,15.38
2023-03-26T01:42:14.934Z,16.90
2023-03-26T01:44:57.896Z,17.10
2023-03-26T01:47:26.682Z,13.48
2023-03-26T01:49:54.880Z,13.93
2023-03-26T01:52:26.664Z,13.85
2023-03-26T01:54:56.327Z,14.30
2023-03-26T01:57:37.342Z,13.75
2023-03-26T02:00:18.300Z,12.35
2023-03-26T02:02:55.615Z,12.77
2023-03-26T02:05:33.980Z,14.00
2023-03-26T02:08:17.261Z,12.70
2023-03-26T02:10:49.341Z,12.52
2023-03-26T02:13:18.081Z,12.80
2023-03-26T02:16:04.080Z,14.60
2023-03-26T02:18:39.393Z,12.27
2023-03-26T02:21:20.968Z,16.45
2023-03-26T02:24:04.399Z,13.10
2023-03-26T02:26:37.936Z,13.05
2023-03-26T02:29:21.037Z,14.52
2023-03-26T02:31:51.104Z,12.25
2023-03-26T02:34:19.527Z,13.13
2023-03-26T02:36:52.440Z,11.13
2023-03-26T02:39:21.635Z,12.40
2023-03-26T02:41:58.166Z,16.17
2023-03-26T02:44:28.170Z,12.85
2023-03-26T02:46:59.740Z,13.50
2023-03-26T02:49:48.007Z,13.50
2023-03-26T02:52:35.003Z,14.07
2023-03-26T02:55:04.519Z,14.55
2023-03-26T02:57:33.801Z,18.05
2023-03-26T03:00:23.144Z,14.55
2023-03-26T03:03:10.472Z,15.30
2023-03-26T03:06:05.404Z,14.95
2023-03-26T03:08:54.839Z,15.50
2023-03-26T03:11:49.060Z,16.73
2023-03-26T03:14:17.712Z,14.50
2023-03-26T03:16:45.989Z,16.80
2023-03-26T03:19:14.623Z,16.40
2023-03-26T03:21:43.466Z,14.68
2023-03-26T03:24:11.950Z,17.33
2023-03-26T03:26:48.261Z,14.57
2023-03-26T03:29:48.253Z,14.98
2023-03-26T03:32:43.311Z,13.57
2023-03-26T03:35:12.407Z,13.13
